sensor_id;sensor_type;location;lat;lon;timestamp;P1;durP1;ratioP1;P2;durP2;ratioP2
26756;SDS011;23848;49.798;10.228;2023-05-07T00:01:55;8.07;;;4.10;;
26756;SDS011;23848;49.798;10.228;2023-05-07T00:04:24;5.20;;;3.78;;
26756;SDS011;23848;49.798;10.228;2023-05-07T00:06:52;4.75;;;3.53;;
26756;SDS011;23848;49.798;10.228;2023-05-07T00:09:22;7.20;;;3.40;;
26756;SDS011;23848;49.798;10.228;2023-05-07T00:11:51;5.07;;;3.78;;
26756;SDS011;23848;49.798;10.228;2023-05-07T00:14:19;4.10;;;3.15;;
26756;SDS011;23848;49.798;10.228;2023-05-07T00:16:48;4.25;;;3.05;;
26756;SDS011;23848;49.798;10.228;2023-05-07T00:19:16;3.85;;;2.67;;
26756;SDS011;23848;49.798;10.228;2023-05-07T00:21:44;4.60;;;3.03;;
26756;SDS011;23848;49.798;10.228;2023-05-07T00:24:13;3.28;;;2.65;;
26756;SDS011;23848;49.798;10.228;2023-05-07T00:26:43;5.28;;;3.00;;
26756;SDS011;23848;49.798;10.228;2023-05-07T00:29:11;4.40;;;3.15;;
26756;SDS011;23848;49.798;10.228;2023-05-07T00:31:40;5.57;;;3.35;;
26756;SDS011;23848;49.798;10.228;2023-05-07T00:34:08;6.20;;;3.83;;
26756;SDS011;23848;49.798;10.228;2023-05-07T00:36:37;6.38;;;3.83;;
26756;SDS011;23848;49.798;10.228;2023-05-07T00:39:05;4.32;;;3.50;;
26756;SDS011;23848;49.798;10.228;2023-05-07T00:41:34;5.05;;;3.75;;
26756;SDS011;23848;49.798;10.228;2023-05-07T00:44:04;5.15;;;3.92;;
26756;SDS011;23848;49.798;10.228;2023-05-07T00:46:32;7.40;;;3.70;;
26756;SDS011;23848;49.798;10.228;2023-05-07T00:49:01;6.72;;;3.75;;
26756;SDS011;23848;49.798;10.228;2023-05-07T00:51:31;6.20;;;4.18;;
26756;SDS011;23848;49.798;10.228;2023-05-07T00:54:00;5.20;;;3.80;;
26756;SDS011;23848;49.798;10.228;2023-05-07T00:56:30;4.60;;;3.88;;
26756;SDS011;23848;49.798;10.228;2023-05-07T00:58:59;5.45;;;3.55;;
26756;SDS011;23848;49.798;10.228;2023-05-07T01:01:30;6.85;;;4.00;;
26756;SDS011;23848;49.798;10.228;2023-05-07T01:03:59;7.30;;;4.03;;
26756;SDS011;23848;49.798;10.228;2023-05-07T01:06:28;4.82;;;2.97;;
26756;SDS011;23848;49.798;10.228;2023-05-07T01:08:57;4.80;;;3.20;;
26756;SDS011;23848;49.798;10.228;2023-05-07T01:11:27;3.85;;;2.90;;
26756;SDS011;23848;49.798;10.228;2023-05-07T01:13:55;4.55;;;3.03;;
26756;SDS011;23848;49.798;10.228;2023-05-07T01:16:24;3.80;;;2.90;;
26756;SDS011;23848;49.798;10.228;2023-05-07T01:18:55;4.38;;;2.97;;
26756;SDS011;23848;49.798;10.228;2023-05-07T01:21:24;6.97;;;3.20;;
26756;SDS011;23848;49.798;10.228;2023-05-07T01:23:55;4.20;;;2.83;;
26756;SDS011;23848;49.798;10.228;2023-05-07T01:26:24;4.35;;;2.90;;
26756;SDS011;23848;49.798;10.228;2023-05-07T01:28:52;4.50;;;2.97;;
26756;SDS011;23848;49.798;10.228;2023-05-07T01:31:20;4.90;;;3.03;;
26756;SDS011;23848;49.798;10.228;2023-05-07T01:33:50;4.07;;;2.80;;
26756;SDS011;23848;49.798;10.228;2023-05-07T01:36:19;5.07;;;2.95;;
26756;SDS011;23848;49.798;10.228;2023-05-07T01:38:50;5.10;;;3.10;;
26756;SDS011;23848;49.798;10.228;2023-05-07T01:41:20;3.53;;;2.70;;
26756;SDS011;23848;49.798;10.228;2023-05-07T01:43:49;4.20;;;2.97;;
26756;SDS011;23848;49.798;10.228;2023-05-07T01:46:18;5.72;;;3.30;;
26756;SDS011;23848;49.798;10.228;2023-05-07T01:48:46;3.33;;;2.53;;
26756;SDS011;23848;49.798;10.228;2023-05-07T01:51:15;4.25;;;3.00;;
26756;SDS011;23848;49.798;10.228;2023-05-07T01:53:43;3.92;;;2.75;;
26756;SDS011;23848;49.798;10.228;2023-05-07T01:56:14;4.72;;;3.13;;
26756;SDS011;23848;49.798;10.228;2023-05-07T01:58:43;4.38;;;2.97;;
26756;SDS011;23848;49.798;10.228;2023-05-07T02:01:12;3.50;;;2.60;;
26756;SDS011;23848;49.798;10.228;2023-05-07T02:03:41;3.65;;;2.80;;
26756;SDS011;23848;49.798;10.228;2023-05-07T02:06:09;5.82;;;2.90;;
26756;SDS011;23848;49.798;10.228;2023-05-07T02:08:38;4.28;;;3.50;;
26756;SDS011;23848;49.798;10.228;2023-05-07T02:11:06;4.25;;;3.22;;
26756;SDS011;23848;49.798;10.228;2023-05-07T02:13:35;3.88;;;2.90;;
26756;SDS011;23848;49.798;10.228;2023-05-07T02:16:05;3.67;;;2.80;;
26756;SDS011;23848;49.798;10.228;2023-05-07T02:18:33;6.07;;;3.03;;
26756;SDS011;23848;49.798;10.228;2023-05-07T02:21:02;4.43;;;3.10;;
26756;SDS011;23848;49.798;10.228;2023-05-07T02:23:30;5.05;;;3.20;;
26756;SDS011;23848;49.798;10.228;2023-05-07T02:25:59;4.30;;;3.33;;
26756;SDS011;23848;49.798;10.228;2023-05-07T02:28:27;5.30;;;3.28;;
26756;SDS011;23848;49.798;10.228;2023-05-07T02:30:56;3.95;;;2.90;;
26756;SDS011;23848;49.798;10.228;2023-05-07T02:33:26;4.28;;;3.22;;
26756;SDS011;23848;49.798;10.228;2023-05-07T02:35:54;4.15;;;2.88;;
26756;SDS011;23848;49.798;10.228;2023-05-07T02:38:23;4.72;;;2.90;;
26756;SDS011;23848;49.798;10.228;2023-05-07T02:40:53;4.22;;;2.90;;
26756;SDS011;23848;49.798;10.228;2023-05-07T02:43:22;4.53;;;3.08;;
26756;SDS011;23848;49.798;10.228;2023-05-07T02:45:59;4.18;;;3.08;;
26756;SDS011;23848;49.798;10.228;2023-05-07T02:48:29;4.18;;;2.90;;
26756;SDS011;23848;49.798;10.228;2023-05-07T02:50:58;3.65;;;2.78;;
26756;SDS011;23848;49.798;10.228;2023-05-07T02:53:26;4.53;;;3.17;;
26756;SDS011;23848;49.798;10.228;2023-05-07T02:55:57;4.68;;;3.38;;
26756;SDS011;23848;49.798;10.228;2023-05-07T02:58:25;5.72;;;3.35;;
26756;SDS011;23848;49.798;10.228;2023-05-07T03:00:54;4.47;;;3.38;;
26756;SDS011;23848;49.798;10.228;2023-05-07T03:03:22;4.88;;;3.72;;
26756;SDS011;23848;49.798;10.228;2023-05-07T03:05:52;4.80;;;3.95;;
26756;SDS011;23848;49.798;10.228;2023-05-07T03:08:23;6.53;;;4.88;;
26756;SDS011;23848;49.798;10.228;2023-05-07T03:10:52;6.00;;;4.00;;
26756;SDS011;23848;49.798;10.228;2023-05-07T03:13:21;6.18;;;4.30;;
26756;SDS011;23848;49.798;10.228;2023-05-07T03:15:53;4.93;;;4.25;;
26756;SDS011;23848;49.798;10.228;2023-05-07T03:18:21;5.78;;;4.68;;
26756;SDS011;23848;49.798;10.228;2023-05-07T03:20:59;6.25;;;4.90;;
26756;SDS011;23848;49.798;10.228;2023-05-07T03:23:30;6.90;;;4.90;;
26756;SDS011;23848;49.798;10.228;2023-05-07T03:25:58;6.25;;;4.85;;
26756;SDS011;23848;49.798;10.228;2023-05-07T03:28:30;8.15;;;5.25;;
26756;SDS011;23848;49.798;10.228;2023-05-07T03:30:58;7.45;;;5.47;;
26756;SDS011;23848;49.798;10.228;2023-05-07T03:33:27;6.53;;;5.28;;
26756;SDS011;23848;49.798;10.228;2023-05-07T03:35:56;6.28;;;5.20;;
26756;SDS011;23848;49.798;10.228;2023-05-07T03:38:25;6.75;;;4.90;;
26756;SDS011;23848;49.798;10.228;2023-05-07T03:40:54;5.63;;;5.03;;
26756;SDS011;23848;49.798;10.228;2023-05-07T03:43:25;7.28;;;6.10;;
26756;SDS011;23848;49.798;10.228;2023-05-07T03:45:54;7.00;;;5.90;;
26756;SDS011;23848;49.798;10.228;2023-05-07T03:48:23;8.15;;;6.18;;
26756;SDS011;23848;49.798;10.228;2023-05-07T03:50:54;8.15;;;6.00;;
26756;SDS011;23848;49.798;10.228;2023-05-07T03:53:28;6.35;;;5.22;;
26756;SDS011;23848;49.798;10.228;2023-05-07T03:55:59;6.18;;;5.07;;
26756;SDS011;23848;49.798;10.228;2023-05-07T03:58:29;6.50;;;5.32;;
26756;SDS011;23848;49.798;10.228;2023-05-07T04:00:57;7.65;;;6.25;;
26756;SDS011;23848;49.798;10.228;2023-05-07T04:03:26;7.78;;;5.85;;
26756;SDS011;23848;49.798;10.228;2023-05-07T04:05:56;9.43;;;6.40;;
26756;SDS011;23848;49.798;10.228;2023-05-07T04:08:27;9.05;;;7.05;;
26756;SDS011;23848;49.798;10.228;2023-05-07T04:10:55;8.85;;;6.93;;
26756;SDS011;23848;49.798;10.228;2023-05-07T04:13:25;8.07;;;6.35;;
26756;SDS011;23848;49.798;10.228;2023-05-07T04:15:54;6.82;;;5.85;;
26756;SDS011;23848;49.798;10.228;2023-05-07T04:18:24;8.40;;;6.78;;
26756;SDS011;23848;49.798;10.228;2023-05-07T04:20:54;7.97;;;6.63;;
26756;SDS011;23848;49.798;10.228;2023-05-07T04:23:23;10.13;;;7.13;;
26756;SDS011;23848;49.798;10.228;2023-05-07T04:25:52;9.95;;;7.95;;
26756;SDS011;23848;49.798;10.228;2023-05-07T04:28:21;8.50;;;6.85;;
26756;SDS011;23848;49.798;10.228;2023-05-07T04:30:50;9.85;;;7.07;;
26756;SDS011;23848;49.798;10.228;2023-05-07T04:33:19;8.90;;;7.43;;
26756;SDS011;23848;49.798;10.228;2023-05-07T04:35:47;9.30;;;7.45;;
26756;SDS011;23848;49.798;10.228;2023-05-07T04:38:15;8.15;;;6.93;;
26756;SDS011;23848;49.798;10.228;2023-05-07T04:40:44;9.90;;;6.82;;
26756;SDS011;23848;49.798;10.228;2023-05-07T04:43:20;7.20;;;6.28;;
26756;SDS011;23848;49.798;10.228;2023-05-07T04:45:51;7.32;;;6.43;;
26756;SDS011;23848;49.798;10.228;2023-05-07T04:48:19;10.82;;;6.55;;
26756;SDS011;23848;49.798;10.228;2023-05-07T04:50:50;8.10;;;6.47;;
26756;SDS011;23848;49.798;10.228;2023-05-07T04:53:20;7.85;;;6.63;;
26756;SDS011;23848;49.798;10.228;2023-05-07T04:55:54;9.10;;;7.40;;
26756;SDS011;23848;49.798;10.228;2023-05-07T04:58:25;7.90;;;7.05;;
26756;SDS011;23848;49.798;10.228;2023-05-07T05:00:58;8.20;;;6.88;;
26756;SDS011;23848;49.798;10.228;2023-05-07T05:03:33;7.82;;;7.03;;
26756;SDS011;23848;49.798;10.228;2023-05-07T05:06:02;9.40;;;7.70;;
26756;SDS011;23848;49.798;10.228;2023-05-07T05:08:32;9.35;;;8.00;;
26756;SDS011;23848;49.798;10.228;2023-05-07T05:11:01;9.30;;;7.93;;
26756;SDS011;23848;49.798;10.228;2023-05-07T05:13:33;8.52;;;7.50;;
26756;SDS011;23848;49.798;10.228;2023-05-07T05:16:03;10.20;;;7.90;;
26756;SDS011;23848;49.798;10.228;2023-05-07T05:18:32;11.13;;;8.82;;
26756;SDS011;23848;49.798;10.228;2023-05-07T05:21:02;10.68;;;8.80;;
26756;SDS011;23848;49.798;10.228;2023-05-07T05:23:31;8.73;;;6.88;;
26756;SDS011;23848;49.798;10.228;2023-05-07T05:25:59;7.85;;;6.38;;
26756;SDS011;23848;49.798;10.228;2023-05-07T05:28:28;7.63;;;6.65;;
26756;SDS011;23848;49.798;10.228;2023-05-07T05:31:00;7.47;;;6.28;;
26756;SDS011;23848;49.798;10.228;2023-05-07T05:33:29;8.55;;;6.80;;
26756;SDS011;23848;49.798;10.228;2023-05-07T05:35:57;7.97;;;7.18;;
26756;SDS011;23848;49.798;10.228;2023-05-07T05:38:26;8.50;;;6.95;;
26756;SDS011;23848;49.798;10.228;2023-05-07T05:40:54;8.00;;;7.03;;
26756;SDS011;23848;49.798;10.228;2023-05-07T05:43:22;7.75;;;6.57;;
26756;SDS011;23848;49.798;10.228;2023-05-07T05:45:51;8.18;;;7.28;;
26756;SDS011;23848;49.798;10.228;2023-05-07T05:48:20;10.90;;;7.18;;
26756;SDS011;23848;49.798;10.228;2023-05-07T05:50:49;8.55;;;7.22;;
26756;SDS011;23848;49.798;10.228;2023-05-07T05:53:19;7.70;;;6.60;;
26756;SDS011;23848;49.798;10.228;2023-05-07T05:55:49;8.55;;;7.07;;
26756;SDS011;23848;49.798;10.228;2023-05-07T05:58:17;8.55;;;7.03;;
26756;SDS011;23848;49.798;10.228;2023-05-07T06:00:47;8.40;;;6.53;;
26756;SDS011;23848;49.798;10.228;2023-05-07T06:03:18;8.63;;;6.97;;
26756;SDS011;23848;49.798;10.228;2023-05-07T06:05:48;8.57;;;7.40;;
26756;SDS011;23848;49.798;10.228;2023-05-07T06:08:17;9.48;;;7.65;;
26756;SDS011;23848;49.798;10.228;2023-05-07T06:10:46;8.32;;;7.13;;
26756;SDS011;23848;49.798;10.228;2023-05-07T06:13:14;9.75;;;6.75;;
26756;SDS011;23848;49.798;10.228;2023-05-07T06:15:45;9.05;;;7.15;;
26756;SDS011;23848;49.798;10.228;2023-05-07T06:18:14;8.48;;;6.57;;
26756;SDS011;23848;49.798;10.228;2023-05-07T06:20:42;7.75;;;6.50;;
26756;SDS011;23848;49.798;10.228;2023-05-07T06:23:12;8.65;;;6.78;;
26756;SDS011;23848;49.798;10.228;2023-05-07T06:25:45;9.43;;;7.30;;
26756;SDS011;23848;49.798;10.228;2023-05-07T06:28:14;7.85;;;6.32;;
26756;SDS011;23848;49.798;10.228;2023-05-07T06:30:42;8.90;;;7.28;;
26756;SDS011;23848;49.798;10.228;2023-05-07T06:33:11;9.93;;;6.85;;
26756;SDS011;23848;49.798;10.228;2023-05-07T06:35:39;8.00;;;6.97;;
26756;SDS011;23848;49.798;10.228;2023-05-07T06:38:10;7.60;;;6.45;;
26756;SDS011;23848;49.798;10.228;2023-05-07T06:40:39;9.48;;;7.35;;
26756;SDS011;23848;49.798;10.228;2023-05-07T06:43:08;9.73;;;7.03;;
26756;SDS011;23848;49.798;10.228;2023-05-07T06:45:37;8.88;;;7.07;;
26756;SDS011;23848;49.798;10.228;2023-05-07T06:48:05;8.10;;;6.75;;
26756;SDS011;23848;49.798;10.228;2023-05-07T06:50:34;8.70;;;6.57;;
26756;SDS011;23848;49.798;10.228;2023-05-07T06:53:02;10.30;;;7.13;;
26756;SDS011;23848;49.798;10.228;2023-05-07T06:55:30;7.97;;;6.57;;
26756;SDS011;23848;49.798;10.228;2023-05-07T07:00:34;8.65;;;7.05;;
26756;SDS011;23848;49.798;10.228;2023-05-07T07:03:02;8.20;;;7.03;;
26756;SDS011;23848;49.798;10.228;2023-05-07T07:05:30;7.60;;;6.45;;
26756;SDS011;23848;49.798;10.228;2023-05-07T07:07:59;8.15;;;6.35;;
26756;SDS011;23848;49.798;10.228;2023-05-07T07:10:27;7.13;;;6.22;;
26756;SDS011;23848;49.798;10.228;2023-05-07T07:12:55;8.90;;;6.68;;
26756;SDS011;23848;49.798;10.228;2023-05-07T07:15:24;9.63;;;6.47;;
26756;SDS011;23848;49.798;10.228;2023-05-07T07:17:54;8.90;;;6.35;;
26756;SDS011;23848;49.798;10.228;2023-05-07T07:20:22;7.68;;;6.28;;
26756;SDS011;23848;49.798;10.228;2023-05-07T07:22:50;8.80;;;6.47;;
26756;SDS011;23848;49.798;10.228;2023-05-07T07:25:19;8.20;;;6.57;;
26756;SDS011;23848;49.798;10.228;2023-05-07T07:27:47;7.72;;;6.47;;
26756;SDS011;23848;49.798;10.228;2023-05-07T07:30:15;10.43;;;6.32;;
26756;SDS011;23848;49.798;10.228;2023-05-07T07:32:44;9.20;;;6.22;;
26756;SDS011;23848;49.798;10.228;2023-05-07T07:35:14;7.03;;;6.03;;
26756;SDS011;23848;49.798;10.228;2023-05-07T07:37:42;7.53;;;5.88;;
26756;SDS011;23848;49.798;10.228;2023-05-07T07:40:11;7.32;;;5.97;;
26756;SDS011;23848;49.798;10.228;2023-05-07T07:42:39;7.18;;;5.65;;
26756;SDS011;23848;49.798;10.228;2023-05-07T07:45:08;8.07;;;6.82;;
26756;SDS011;23848;49.798;10.228;2023-05-07T07:47:36;7.68;;;6.38;;
26756;SDS011;23848;49.798;10.228;2023-05-07T07:50:05;7.72;;;6.43;;
26756;SDS011;23848;49.798;10.228;2023-05-07T07:52:35;7.10;;;5.60;;
26756;SDS011;23848;49.798;10.228;2023-05-07T07:55:04;7.32;;;5.85;;
26756;SDS011;23848;49.798;10.228;2023-05-07T07:57:33;8.60;;;6.53;;
26756;SDS011;23848;49.798;10.228;2023-05-07T08:00:01;7.00;;;5.65;;
26756;SDS011;23848;49.798;10.228;2023-05-07T08:02:30;8.30;;;6.07;;
26756;SDS011;23848;49.798;10.228;2023-05-07T08:04:58;7.47;;;6.13;;
26756;SDS011;23848;49.798;10.228;2023-05-07T08:07:27;8.30;;;6.07;;
26756;SDS011;23848;49.798;10.228;2023-05-07T08:09:57;7.82;;;5.75;;
26756;SDS011;23848;49.798;10.228;2023-05-07T08:12:25;8.27;;;6.15;;
26756;SDS011;23848;49.798;10.228;2023-05-07T08:14:54;8.32;;;6.07;;
26756;SDS011;23848;49.798;10.228;2023-05-07T08:17:22;7.63;;;6.10;;
26756;SDS011;23848;49.798;10.228;2023-05-07T08:19:50;7.32;;;6.45;;
26756;SDS011;23848;49.798;10.228;2023-05-07T08:22:19;7.70;;;6.30;;
26756;SDS011;23848;49.798;10.228;2023-05-07T08:24:49;7.72;;;6.28;;
26756;SDS011;23848;49.798;10.228;2023-05-07T08:27:21;7.97;;;6.70;;
26756;SDS011;23848;49.798;10.228;2023-05-07T08:29:49;6.88;;;5.80;;
26756;SDS011;23848;49.798;10.228;2023-05-07T08:32:17;7.15;;;5.95;;
26756;SDS011;23848;49.798;10.228;2023-05-07T08:34:46;7.20;;;5.68;;
26756;SDS011;23848;49.798;10.228;2023-05-07T08:37:14;7.15;;;5.65;;
26756;SDS011;23848;49.798;10.228;2023-05-07T08:39:42;7.63;;;5.88;;
26756;SDS011;23848;49.798;10.228;2023-05-07T08:42:11;8.82;;;5.88;;
26756;SDS011;23848;49.798;10.228;2023-05-07T08:44:42;6.85;;;5.65;;
26756;SDS011;23848;49.798;10.228;2023-05-07T08:47:13;7.30;;;5.93;;
26756;SDS011;23848;49.798;10.228;2023-05-07T08:49:41;8.15;;;6.15;;
26756;SDS011;23848;49.798;10.228;2023-05-07T08:52:11;7.90;;;6.20;;
26756;SDS011;23848;49.798;10.228;2023-05-07T08:54:39;7.88;;;6.95;;
26756;SDS011;23848;49.798;10.228;2023-05-07T08:57:08;7.07;;;5.97;;
26756;SDS011;23848;49.798;10.228;2023-05-07T08:59:37;9.07;;;6.47;;
26756;SDS011;23848;49.798;10.228;2023-05-07T09:02:06;8.05;;;6.88;;
26756;SDS011;23848;49.798;10.228;2023-05-07T09:04:37;7.85;;;6.18;;
26756;SDS011;23848;49.798;10.228;2023-05-07T09:07:05;9.15;;;6.72;;
26756;SDS011;23848;49.798;10.228;2023-05-07T09:09:33;7.90;;;6.63;;
26756;SDS011;23848;49.798;10.228;2023-05-07T09:12:02;6.60;;;5.63;;
26756;SDS011;23848;49.798;10.228;2023-05-07T09:14:31;8.20;;;6.68;;
26756;SDS011;23848;49.798;10.228;2023-05-07T09:16:59;7.18;;;6.28;;
26756;SDS011;23848;49.798;10.228;2023-05-07T09:19:29;7.97;;;6.65;;
26756;SDS011;23848;49.798;10.228;2023-05-07T09:21:58;8.25;;;6.25;;
26756;SDS011;23848;49.798;10.228;2023-05-07T09:24:27;7.88;;;5.75;;
26756;SDS011;23848;49.798;10.228;2023-05-07T09:27:00;7.70;;;6.10;;
26756;SDS011;23848;49.798;10.228;2023-05-07T09:29:28;7.10;;;6.05;;
26756;SDS011;23848;49.798;10.228;2023-05-07T09:32:01;7.50;;;6.13;;
26756;SDS011;23848;49.798;10.228;2023-05-07T09:34:31;9.38;;;5.53;;
26756;SDS011;23848;49.798;10.228;2023-05-07T09:37:00;7.45;;;6.18;;
26756;SDS011;23848;49.798;10.228;2023-05-07T09:39:38;7.30;;;6.35;;
26756;SDS011;23848;49.798;10.228;2023-05-07T09:42:07;7.43;;;6.07;;
26756;SDS011;23848;49.798;10.228;2023-05-07T09:44:35;7.47;;;5.90;;
26756;SDS011;23848;49.798;10.228;2023-05-07T09:47:04;7.00;;;5.90;;
26756;SDS011;23848;49.798;10.228;2023-05-07T09:49:35;6.35;;;5.53;;
26756;SDS011;23848;49.798;10.228;2023-05-07T09:52:04;8.75;;;6.32;;
26756;SDS011;23848;49.798;10.228;2023-05-07T09:54:35;7.70;;;6.22;;
26756;SDS011;23848;49.798;10.228;2023-05-07T09:57:04;8.00;;;6.32;;
26756;SDS011;23848;49.798;10.228;2023-05-07T09:59:33;7.05;;;6.00;;
26756;SDS011;23848;49.798;10.228;2023-05-07T10:02:02;8.52;;;6.40;;
26756;SDS011;23848;49.798;10.228;2023-05-07T10:04:31;7.18;;;6.13;;
26756;SDS011;23848;49.798;10.228;2023-05-07T10:07:01;6.50;;;5.82;;
26756;SDS011;23848;49.798;10.228;2023-05-07T10:09:30;8.25;;;5.93;;
26756;SDS011;23848;49.798;10.228;2023-05-07T10:11:59;7.40;;;6.10;;
26756;SDS011;23848;49.798;10.228;2023-05-07T10:14:28;7.93;;;6.05;;
26756;SDS011;23848;49.798;10.228;2023-05-07T10:16:56;7.20;;;5.75;;
26756;SDS011;23848;49.798;10.228;2023-05-07T10:19:25;7.13;;;5.85;;
26756;SDS011;23848;49.798;10.228;2023-05-07T10:21:54;7.43;;;5.80;;
26756;SDS011;23848;49.798;10.228;2023-05-07T10:24:26;7.18;;;6.18;;
26756;SDS011;23848;49.798;10.228;2023-05-07T10:26:55;7.93;;;5.75;;
26756;SDS011;23848;49.798;10.228;2023-05-07T10:29:28;7.75;;;6.00;;
26756;SDS011;23848;49.798;10.228;2023-05-07T10:31:58;7.30;;;5.03;;
26756;SDS011;23848;49.798;10.228;2023-05-07T10:34:28;7.15;;;5.38;;
26756;SDS011;23848;49.798;10.228;2023-05-07T10:36:57;7.72;;;5.72;;
26756;SDS011;23848;49.798;10.228;2023-05-07T10:39:27;8.35;;;6.03;;
26756;SDS011;23848;49.798;10.228;2023-05-07T10:41:55;8.60;;;6.55;;
26756;SDS011;23848;49.798;10.228;2023-05-07T10:44:25;7.28;;;5.90;;
26756;SDS011;23848;49.798;10.228;2023-05-07T10:47:06;8.32;;;5.63;;
26756;SDS011;23848;49.798;10.228;2023-05-07T10:49:36;6.72;;;5.60;;
26756;SDS011;23848;49.798;10.228;2023-05-07T10:52:11;5.88;;;5.28;;
26756;SDS011;23848;49.798;10.228;2023-05-07T10:54:41;5.30;;;4.25;;
26756;SDS011;23848;49.798;10.228;2023-05-07T10:59:56;5.25;;;4.22;;
26756;SDS011;23848;49.798;10.228;2023-05-07T11:02:31;6.40;;;4.88;;
26756;SDS011;23848;49.798;10.228;2023-05-07T11:05:20;7.60;;;4.90;;
26756;SDS011;23848;49.798;10.228;2023-05-07T11:07:53;6.18;;;4.50;;
26756;SDS011;23848;49.798;10.228;2023-05-07T11:10:23;5.35;;;4.40;;
26756;SDS011;23848;49.798;10.228;2023-05-07T11:13:11;5.22;;;4.70;;
26756;SDS011;23848;49.798;10.228;2023-05-07T11:15:41;6.20;;;4.45;;
26756;SDS011;23848;49.798;10.228;2023-05-07T11:18:14;5.30;;;4.80;;
26756;SDS011;23848;49.798;10.228;2023-05-07T11:20:46;6.15;;;4.82;;
26756;SDS011;23848;49.798;10.228;2023-05-07T11:25:45;5.18;;;4.53;;
26756;SDS011;23848;49.798;10.228;2023-05-07T11:28:13;4.97;;;4.35;;
26756;SDS011;23848;49.798;10.228;2023-05-07T11:30:42;6.82;;;4.30;;
26756;SDS011;23848;49.798;10.228;2023-05-07T11:33:10;4.85;;;4.20;;
26756;SDS011;23848;49.798;10.228;2023-05-07T11:35:39;5.50;;;3.80;;
26756;SDS011;23848;49.798;10.228;2023-05-07T11:38:10;4.15;;;3.20;;
26756;SDS011;23848;49.798;10.228;2023-05-07T11:40:49;4.65;;;3.80;;
26756;SDS011;23848;49.798;10.228;2023-05-07T11:43:18;6.65;;;3.92;;
26756;SDS011;23848;49.798;10.228;2023-05-07T11:45:46;4.05;;;3.17;;
26756;SDS011;23848;49.798;10.228;2023-05-07T11:48:17;4.35;;;3.75;;
26756;SDS011;23848;49.798;10.228;2023-05-07T11:50:49;6.03;;;3.60;;
26756;SDS011;23848;49.798;10.228;2023-05-07T11:53:18;3.92;;;3.00;;
26756;SDS011;23848;49.798;10.228;2023-05-07T11:55:47;4.60;;;3.20;;
26756;SDS011;23848;49.798;10.228;2023-05-07T11:58:20;3.92;;;2.90;;
26756;SDS011;23848;49.798;10.228;2023-05-07T12:00:49;3.70;;;3.10;;
26756;SDS011;23848;49.798;10.228;2023-05-07T12:03:17;3.28;;;2.90;;
26756;SDS011;23848;49.798;10.228;2023-05-07T12:05:46;4.85;;;3.33;;
26756;SDS011;23848;49.798;10.228;2023-05-07T12:08:16;5.25;;;3.20;;
26756;SDS011;23848;49.798;10.228;2023-05-07T12:10:44;5.45;;;3.15;;
26756;SDS011;23848;49.798;10.228;2023-05-07T12:13:14;5.00;;;3.00;;
26756;SDS011;23848;49.798;10.228;2023-05-07T12:15:44;3.75;;;3.15;;
26756;SDS011;23848;49.798;10.228;2023-05-07T12:18:13;3.95;;;2.60;;
26756;SDS011;23848;49.798;10.228;2023-05-07T12:20:41;3.67;;;2.95;;
26756;SDS011;23848;49.798;10.228;2023-05-07T12:23:10;3.60;;;2.45;;
26756;SDS011;23848;49.798;10.228;2023-05-07T12:25:38;4.63;;;2.78;;
26756;SDS011;23848;49.798;10.228;2023-05-07T12:28:13;3.70;;;2.78;;
26756;SDS011;23848;49.798;10.228;2023-05-07T12:30:42;3.92;;;2.78;;
26756;SDS011;23848;49.798;10.228;2023-05-07T12:33:12;3.67;;;2.40;;
26756;SDS011;23848;49.798;10.228;2023-05-07T12:35:41;4.72;;;2.60;;
26756;SDS011;23848;49.798;10.228;2023-05-07T12:38:10;2.95;;;2.53;;
26756;SDS011;23848;49.798;10.228;2023-05-07T12:40:39;3.42;;;2.42;;
26756;SDS011;23848;49.798;10.228;2023-05-07T12:43:07;3.53;;;2.55;;
26756;SDS011;23848;49.798;10.228;2023-05-07T12:45:36;3.20;;;2.50;;
26756;SDS011;23848;49.798;10.228;2023-05-07T12:48:06;4.20;;;2.53;;
26756;SDS011;23848;49.798;10.228;2023-05-07T12:50:35;5.43;;;2.47;;
26756;SDS011;23848;49.798;10.228;2023-05-07T12:53:04;3.72;;;3.00;;
26756;SDS011;23848;49.798;10.228;2023-05-07T12:55:41;3.15;;;2.45;;
26756;SDS011;23848;49.798;10.228;2023-05-07T12:58:14;4.45;;;2.90;;
26756;SDS011;23848;49.798;10.228;2023-05-07T13:00:43;4.03;;;3.03;;
26756;SDS011;23848;49.798;10.228;2023-05-07T13:03:11;4.03;;;3.25;;
26756;SDS011;23848;49.798;10.228;2023-05-07T13:05:41;3.35;;;2.78;;
26756;SDS011;23848;49.798;10.228;2023-05-07T13:08:09;4.22;;;3.30;;
26756;SDS011;23848;49.798;10.228;2023-05-07T13:10:38;3.75;;;2.63;;
26756;SDS011;23848;49.798;10.228;2023-05-07T13:13:06;7.22;;;2.40;;
26756;SDS011;23848;49.798;10.228;2023-05-07T13:15:35;3.63;;;2.33;;
26756;SDS011;23848;49.798;10.228;2023-05-07T13:18:04;4.72;;;3.38;;
26756;SDS011;23848;49.798;10.228;2023-05-07T13:20:32;5.03;;;3.10;;
26756;SDS011;23848;49.798;10.228;2023-05-07T13:23:02;4.15;;;2.95;;
26756;SDS011;23848;49.798;10.228;2023-05-07T13:25:31;4.78;;;2.90;;
26756;SDS011;23848;49.798;10.228;2023-05-07T13:28:00;3.88;;;2.58;;
26756;SDS011;23848;49.798;10.228;2023-05-07T13:30:36;3.88;;;2.80;;
26756;SDS011;23848;49.798;10.228;2023-05-07T13:33:05;4.75;;;2.85;;
26756;SDS011;23848;49.798;10.228;2023-05-07T13:35:33;3.58;;;2.80;;
26756;SDS011;23848;49.798;10.228;2023-05-07T13:38:03;4.00;;;2.90;;
26756;SDS011;23848;49.798;10.228;2023-05-07T13:40:31;4.03;;;3.13;;
26756;SDS011;23848;49.798;10.228;2023-05-07T13:43:00;4.75;;;3.22;;
26756;SDS011;23848;49.798;10.228;2023-05-07T13:45:29;4.20;;;3.10;;
26756;SDS011;23848;49.798;10.228;2023-05-07T13:47:57;4.68;;;3.10;;
26756;SDS011;23848;49.798;10.228;2023-05-07T13:50:26;4.57;;;3.15;;
26756;SDS011;23848;49.798;10.228;2023-05-07T13:52:56;3.35;;;2.65;;
26756;SDS011;23848;49.798;10.228;2023-05-07T13:55:28;4.07;;;2.65;;
26756;SDS011;23848;49.798;10.228;2023-05-07T13:57:57;4.20;;;2.70;;
26756;SDS011;23848;49.798;10.228;2023-05-07T14:00:25;3.45;;;2.58;;
26756;SDS011;23848;49.798;10.228;2023-05-07T14:02:54;3.92;;;3.13;;
26756;SDS011;23848;49.798;10.228;2023-05-07T14:05:24;3.97;;;2.97;;
26756;SDS011;23848;49.798;10.228;2023-05-07T14:07:54;3.70;;;3.05;;
26756;SDS011;23848;49.798;10.228;2023-05-07T14:10:23;3.00;;;2.30;;
26756;SDS011;23848;49.798;10.228;2023-05-07T14:12:52;4.03;;;2.78;;
26756;SDS011;23848;49.798;10.228;2023-05-07T14:15:21;5.15;;;2.50;;
26756;SDS011;23848;49.798;10.228;2023-05-07T14:17:49;5.10;;;2.80;;
26756;SDS011;23848;49.798;10.228;2023-05-07T14:20:18;3.58;;;2.70;;
26756;SDS011;23848;49.798;10.228;2023-05-07T14:22:46;4.43;;;3.05;;
26756;SDS011;23848;49.798;10.228;2023-05-07T14:25:15;4.22;;;2.55;;
26756;SDS011;23848;49.798;10.228;2023-05-07T14:27:44;3.72;;;2.38;;
26756;SDS011;23848;49.798;10.228;2023-05-07T14:30:14;3.55;;;2.45;;
26756;SDS011;23848;49.798;10.228;2023-05-07T14:32:43;4.47;;;2.30;;
26756;SDS011;23848;49.798;10.228;2023-05-07T14:35:11;3.47;;;2.53;;
26756;SDS011;23848;49.798;10.228;2023-05-07T14:37:40;3.17;;;2.33;;
26756;SDS011;23848;49.798;10.228;2023-05-07T14:40:09;4.18;;;2.60;;
26756;SDS011;23848;49.798;10.228;2023-05-07T14:42:38;3.38;;;2.40;;
26756;SDS011;23848;49.798;10.228;2023-05-07T14:45:07;4.38;;;2.60;;
26756;SDS011;23848;49.798;10.228;2023-05-07T14:47:37;3.85;;;2.60;;
26756;SDS011;23848;49.798;10.228;2023-05-07T14:50:05;3.17;;;2.40;;
26756;SDS011;23848;49.798;10.228;2023-05-07T14:52:34;4.47;;;2.70;;
26756;SDS011;23848;49.798;10.228;2023-05-07T14:55:02;4.05;;;2.55;;